Time;durP1;ratioP1;P1;durP2;ratioP2;P2;SDS_P1;SDS_P2;PMS_P1;PMS_P2;Temp;Humidity;BMP_temperature;BMP_pressure;BME280_temperature;BME280_humidity;BME280_pressure;Samples;Min_cycle;Max_cycle;Signal;HPM_P1;HPM_P2
2021/05/07 00:01:04;;;;;;;;;;;7.00;98.30;;;;;;5051067;28;19911;-89
2021/05/07 00:03:32;;;;;;;;;;;7.00;98.20;;;;;;5052662;28;19964;-89
2021/05/07 00:06:03;;;;;;;;;;;7.00;98.30;;;;;;5051292;28;19905;-89
2021/05/07 00:08:33;;;;;;;;;;;7.20;97.60;;;;;;5051461;28;19963;-89
2021/05/07 00:10:59;;;;;;;;;;;7.20;97.00;;;;;;5052833;28;19920;-89
2021/05/07 00:13:25;;;;;;;;;;;7.20;96.70;;;;;;5055254;28;19911;-87
2021/05/07 00:15:51;;;;;;;;;;;7.30;96.90;;;;;;5055527;28;19904;-88
2021/05/07 00:18:16;;;;;;;;;;;7.40;97.00;;;;;;5055469;28;19911;-89
2021/05/07 00:20:42;;;;;;;;;;;7.40;96.90;;;;;;5055046;28;19991;-88
2021/05/07 00:23:08;;;;;;;;;;;7.40;96.70;;;;;;5055334;28;19940;-88
2021/05/07 00:25:34;;;;;;;;;;;7.30;96.60;;;;;;5055098;28;19915;-88
2021/05/07 00:27:59;;;;;;;;;;;7.40;96.90;;;;;;5056959;28;19908;-88
2021/05/07 00:30:25;;;;;;;;;;;7.40;97.00;;;;;;5054376;28;20392;-88
2021/05/07 00:32:50;;;;;;;;;;;7.50;96.90;;;;;;5055050;28;20373;-87
2021/05/07 00:35:16;;;;;;;;;;;7.50;96.90;;;;;;5056284;28;19904;-87
2021/05/07 00:37:41;;;;;;;;;;;7.40;97.10;;;;;;5055045;28;19905;-87
2021/05/07 00:40:07;;;;;;;;;;;7.50;96.90;;;;;;5056077;28;19905;-88
2021/05/07 00:42:33;;;;;;;;;;;7.50;97.00;;;;;;5054969;28;20003;-88
2021/05/07 00:44:59;;;;;;;;;;;7.40;96.60;;;;;;5055220;28;19920;-87
2021/05/07 00:47:24;;;;;;;;;;;7.50;96.50;;;;;;5055030;28;19912;-87
2021/05/07 00:49:50;;;;;;;;;;;7.50;96.40;;;;;;5055949;28;19905;-87
2021/05/07 00:52:16;;;;;;;;;;;7.50;96.30;;;;;;5054804;28;19905;-88
2021/05/07 00:54:42;;;;;;;;;;;7.50;96.20;;;;;;5054985;28;19927;-87
2021/05/07 00:57:07;;;;;;;;;;;7.50;96.20;;;;;;5055231;28;19936;-87
2021/05/07 00:59:33;;;;;;;;;;;7.50;96.40;;;;;;5056228;28;19909;-86
2021/05/07 01:01:58;;;;;;;;;;;7.40;96.40;;;;;;5056471;28;19905;-87
2021/05/07 01:04:26;;;;;;;;;;;7.40;96.10;;;;;;5054936;28;19911;-87
2021/05/07 01:06:51;;;;;;;;;;;7.30;95.70;;;;;;5054881;28;20373;-87
2021/05/07 01:09:17;;;;;;;;;;;7.30;95.80;;;;;;5054815;28;19999;-87
2021/05/07 01:11:42;;;;;;;;;;;7.30;95.60;;;;;;5054604;28;19936;-87
2021/05/07 01:14:08;;;;;;;;;;;7.20;95.60;;;;;;5055834;28;19911;-87
2021/05/07 01:16:34;;;;;;;;;;;7.20;95.90;;;;;;5054078;28;19909;-87
2021/05/07 01:19:00;;;;;;;;;;;7.10;95.80;;;;;;5053914;28;19907;-87
2021/05/07 01:21:26;;;;;;;;;;;7.20;95.90;;;;;;5053797;28;20388;-87
2021/05/07 01:23:51;;;;;;;;;;;7.20;96.20;;;;;;5054337;28;19926;-87
2021/05/07 01:26:17;;;;;;;;;;;7.20;95.90;;;;;;5056114;28;20420;-87
2021/05/07 01:28:42;;;;;;;;;;;7.10;95.90;;;;;;5054619;28;19909;-87
2021/05/07 01:31:08;;;;;;;;;;;7.10;96.10;;;;;;5054197;28;20361;-87
2021/05/07 01:33:35;;;;;;;;;;;7.20;96.00;;;;;;5054755;28;19909;-87
2021/05/07 01:36:00;;;;;;;;;;;7.10;96.10;;;;;;5055719;28;20362;-87
2021/05/07 01:38:26;;;;;;;;;;;7.10;96.00;;;;;;5055873;28;19944;-86
2021/05/07 01:40:52;;;;;;;;;;;7.10;96.20;;;;;;5053584;28;20270;-87
2021/05/07 01:43:18;;;;;;;;;;;6.90;96.50;;;;;;5053961;28;19936;-87
2021/05/07 01:45:45;;;;;;;;;;;6.90;96.70;;;;;;5054319;28;19935;-87
2021/05/07 01:48:10;;;;;;;;;;;6.90;96.50;;;;;;5054567;28;19952;-87
2021/05/07 01:50:37;;;;;;;;;;;7.00;96.40;;;;;;5054613;28;19912;-87
2021/05/07 01:53:03;;;;;;;;;;;6.90;96.40;;;;;;5054712;28;20377;-88
2021/05/07 01:55:30;;;;;;;;;;;7.00;96.40;;;;;;5055489;28;20350;-88
2021/05/07 01:57:55;;;;;;;;;;;7.00;96.40;;;;;;5054642;28;19904;-88
2021/05/07 02:00:22;;;;;;;;;;;7.00;96.40;;;;;;5054026;28;19912;-88
2021/05/07 02:02:48;;;;;;;;;;;7.00;96.40;;;;;;5055977;28;19999;-87
2021/05/07 02:05:14;;;;;;;;;;;7.10;96.60;;;;;;5055700;28;20436;-87
2021/05/07 02:07:42;;;;;;;;;;;7.00;96.30;;;;;;5054714;28;19909;-87
2021/05/07 02:10:08;;;;;;;;;;;7.00;96.30;;;;;;5053602;28;19909;-88
2021/05/07 02:12:34;;;;;;;;;;;7.00;96.10;;;;;;5053551;28;19931;-87
2021/05/07 02:14:59;;;;;;;;;;;7.00;96.50;;;;;;5054891;28;20321;-87
2021/05/07 02:17:25;;;;;;;;;;;6.90;96.50;;;;;;5055772;28;19908;-87
2021/05/07 02:19:51;;;;;;;;;;;6.90;96.70;;;;;;5053612;28;19918;-87
2021/05/07 02:22:16;;;;;;;;;;;6.90;96.50;;;;;;5055758;28;19904;-87
2021/05/07 02:24:42;;;;;;;;;;;6.80;96.60;;;;;;5055896;28;19911;-87
2021/05/07 02:27:07;;;;;;;;;;;6.80;96.50;;;;;;5055862;28;19909;-87
2021/05/07 02:29:33;;;;;;;;;;;6.80;96.60;;;;;;5053525;28;19905;-87
2021/05/07 02:31:58;;;;;;;;;;;6.80;96.50;;;;;;5054227;28;20270;-87
2021/05/07 02:34:24;;;;;;;;;;;6.80;96.80;;;;;;5054613;28;19948;-87
2021/05/07 02:36:49;;;;;;;;;;;6.80;96.70;;;;;;5054252;28;19911;-87
2021/05/07 02:39:15;;;;;;;;;;;6.70;96.80;;;;;;5053247;28;20286;-87
2021/05/07 02:41:41;;;;;;;;;;;6.70;96.60;;;;;;5053776;28;19908;-87
2021/05/07 02:44:07;;;;;;;;;;;6.70;96.90;;;;;;5056325;28;20312;-87
2021/05/07 02:46:33;;;;;;;;;;;6.70;97.00;;;;;;5056466;28;19962;-88
2021/05/07 02:48:59;;;;;;;;;;;6.70;96.80;;;;;;5057051;28;19991;-88
2021/05/07 02:51:24;;;;;;;;;;;6.60;96.80;;;;;;5055753;28;19909;-87
2021/05/07 02:53:50;;;;;;;;;;;6.70;96.60;;;;;;5052449;28;19905;-87
2021/05/07 02:56:15;;;;;;;;;;;6.70;96.80;;;;;;5053749;28;19904;-87
2021/05/07 02:58:41;;;;;;;;;;;6.70;96.60;;;;;;5052348;28;19904;-88
2021/05/07 03:01:06;;;;;;;;;;;6.70;96.70;;;;;;5052875;28;19960;-88
2021/05/07 03:03:32;;;;;;;;;;;6.60;96.60;;;;;;5052528;28;19999;-87
2021/05/07 03:05:57;;;;;;;;;;;6.70;96.50;;;;;;5051985;28;19911;-87
2021/05/07 03:08:23;;;;;;;;;;;6.60;96.80;;;;;;5051983;28;20562;-87
2021/05/07 03:10:49;;;;;;;;;;;6.50;97.00;;;;;;5051505;28;19905;-87
2021/05/07 03:13:15;;;;;;;;;;;6.50;96.80;;;;;;5051944;28;19908;-87
2021/05/07 03:15:40;;;;;;;;;;;6.60;96.90;;;;;;5052014;28;20373;-87
2021/05/07 03:18:06;;;;;;;;;;;6.50;96.60;;;;;;5051877;28;19999;-87
2021/05/07 03:20:31;;;;;;;;;;;6.60;97.00;;;;;;5051605;28;19999;-87
2021/05/07 03:22:57;;;;;;;;;;;6.60;96.60;;;;;;5051688;28;19905;-88
2021/05/07 03:25:22;;;;;;;;;;;6.60;96.70;;;;;;5051545;28;20407;-87
2021/05/07 03:27:48;;;;;;;;;;;6.60;96.70;;;;;;5051504;28;20060;-87
2021/05/07 03:30:13;;;;;;;;;;;6.60;96.60;;;;;;5051450;28;20387;-88
2021/05/07 03:32:39;;;;;;;;;;;6.60;96.50;;;;;;5051671;28;19905;-89
2021/05/07 03:35:05;;;;;;;;;;;6.60;96.60;;;;;;5051559;28;20288;-87
2021/05/07 03:37:30;;;;;;;;;;;6.60;96.50;;;;;;5051648;28;20349;-87
2021/05/07 03:39:56;;;;;;;;;;;6.60;96.70;;;;;;5067767;28;19908;-87
2021/05/07 03:42:21;;;;;;;;;;;6.50;96.50;;;;;;5052979;28;19905;-88
2021/05/07 03:44:47;;;;;;;;;;;6.60;96.50;;;;;;5051025;28;19963;-87
2021/05/07 03:47:12;;;;;;;;;;;6.60;96.70;;;;;;5068133;28;19909;-87
2021/05/07 03:49:38;;;;;;;;;;;6.60;96.70;;;;;;5051315;28;19943;-87
2021/05/07 03:52:03;;;;;;;;;;;6.60;96.60;;;;;;5052315;28;19944;-87
2021/05/07 03:54:29;;;;;;;;;;;6.70;96.50;;;;;;5052429;28;20310;-86
2021/05/07 03:56:54;;;;;;;;;;;6.60;96.40;;;;;;5050884;28;19909;-87
2021/05/07 03:59:20;;;;;;;;;;;6.60;96.50;;;;;;5051751;28;19952;-87
2021/05/07 04:01:46;;;;;;;;;;;6.50;96.40;;;;;;5050858;28;19905;-87
2021/05/07 04:04:11;;;;;;;;;;;6.50;96.70;;;;;;5052368;28;20510;-87
2021/05/07 04:06:37;;;;;;;;;;;6.60;96.60;;;;;;5050810;28;20323;-87
2021/05/07 04:09:15;;;;;;;;;;;6.50;96.60;;;;;;5051724;28;19905;-87
2021/05/07 04:11:54;;;;;;;;;;;6.40;96.30;;;;;;5050815;28;19931;-87
2021/05/07 04:14:20;;;;;;;;;;;6.30;96.90;;;;;;5050931;28;20042;-87
2021/05/07 04:16:45;;;;;;;;;;;6.30;97.20;;;;;;5052030;28;20000;-87
2021/05/07 04:19:11;;;;;;;;;;;6.30;97.00;;;;;;5050227;28;19911;-87
2021/05/07 04:21:36;;;;;;;;;;;6.40;97.00;;;;;;5050820;28;19912;-87
2021/05/07 04:24:02;;;;;;;;;;;6.40;97.00;;;;;;5050674;28;19948;-87
2021/05/07 04:26:27;;;;;;;;;;;6.30;96.90;;;;;;5052050;28;19909;-87
2021/05/07 04:28:53;;;;;;;;;;;6.40;96.60;;;;;;5051822;28;19912;-87
2021/05/07 04:31:18;;;;;;;;;;;6.40;96.70;;;;;;5051944;28;19905;-87
2021/05/07 04:33:44;;;;;;;;;;;6.40;96.60;;;;;;5067873;28;19958;-87
2021/05/07 04:36:09;;;;;;;;;;;6.40;96.80;;;;;;5051406;28;20038;-87
2021/05/07 04:38:36;;;;;;;;;;;6.50;96.70;;;;;;5052889;28;19959;-87
2021/05/07 04:41:02;;;;;;;;;;;6.40;96.80;;;;;;5052057;28;19935;-87
2021/05/07 04:43:28;;;;;;;;;;;6.40;96.60;;;;;;5051568;28;19904;-87
2021/05/07 04:45:53;;;;;;;;;;;6.40;96.80;;;;;;5051580;28;20011;-87
2021/05/07 04:48:19;;;;;;;;;;;6.40;97.00;;;;;;5052651;28;19904;-87
2021/05/07 04:50:44;;;;;;;;;;;6.40;97.10;;;;;;5052659;28;20483;-88
2021/05/07 04:53:10;;;;;;;;;;;6.50;97.20;;;;;;5051711;28;19905;-87
2021/05/07 04:55:36;;;;;;;;;;;6.40;96.60;;;;;;5051478;28;19904;-86
2021/05/07 05:10:34;;;;;;;;;;;6.40;97.70;;;;;;5054758;28;19915;-87
2021/05/07 05:12:59;;;;;;;;;;;6.40;97.20;;;;;;5055687;28;19908;-87
2021/05/07 05:15:25;;;;;;;;;;;6.50;97.50;;;;;;5054524;28;19916;-87
2021/05/07 05:17:51;;;;;;;;;;;6.50;97.40;;;;;;5054166;28;19950;-87
2021/05/07 05:20:17;;;;;;;;;;;6.40;97.40;;;;;;5055100;28;19905;-87
2021/05/07 05:22:43;;;;;;;;;;;6.50;97.80;;;;;;5055763;28;19904;-87
2021/05/07 05:25:08;;;;;;;;;;;6.60;97.50;;;;;;5055722;28;19904;-87
2021/05/07 05:27:35;;;;;;;;;;;6.70;97.40;;;;;;5054725;28;19958;-87
2021/05/07 05:30:00;;;;;;;;;;;6.80;97.10;;;;;;5054635;28;19905;-87
2021/05/07 05:32:26;;;;;;;;;;;6.80;97.10;;;;;;5054366;28;19905;-87
2021/05/07 05:34:51;;;;;;;;;;;6.80;97.00;;;;;;5055533;28;19999;-88
2021/05/07 05:37:18;;;;;;;;;;;6.80;97.10;;;;;;5054192;28;19904;-87
2021/05/07 05:39:43;;;;;;;;;;;6.90;96.90;;;;;;5054814;28;19904;-87
2021/05/07 05:42:09;;;;;;;;;;;6.90;96.90;;;;;;5055450;28;19962;-87
2021/05/07 05:44:34;;;;;;;;;;;6.80;96.30;;;;;;5053763;28;20285;-88
2021/05/07 05:47:00;;;;;;;;;;;6.80;96.70;;;;;;5054032;28;19912;-87
2021/05/07 05:49:25;;;;;;;;;;;6.90;96.70;;;;;;5053878;28;19905;-88
2021/05/07 05:51:51;;;;;;;;;;;6.80;97.00;;;;;;5053675;28;19908;-87
2021/05/07 05:54:16;;;;;;;;;;;6.70;95.00;;;;;;5055401;28;19995;-87
2021/05/07 05:56:42;;;;;;;;;;;6.70;93.10;;;;;;5054626;28;20155;-87
2021/05/07 05:59:08;;;;;;;;;;;6.60;92.50;;;;;;5052398;28;20293;-87
2021/05/07 06:01:33;;;;;;;;;;;6.60;93.50;;;;;;5052964;28;20117;-87
2021/05/07 06:03:59;;;;;;;;;;;6.60;93.50;;;;;;5069603;28;19905;-88
2021/05/07 06:06:24;;;;;;;;;;;6.50;94.10;;;;;;5055487;28;20007;-87
2021/05/07 06:08:50;;;;;;;;;;;6.30;95.00;;;;;;5053006;28;19916;-87
2021/05/07 06:11:15;;;;;;;;;;;6.20;95.20;;;;;;5053729;28;19951;-87
2021/05/07 06:13:41;;;;;;;;;;;6.10;95.50;;;;;;5052838;28;19905;-87
2021/05/07 06:16:06;;;;;;;;;;;6.10;95.80;;;;;;5053987;28;19905;-87
2021/05/07 06:18:32;;;;;;;;;;;6.00;96.10;;;;;;5052654;28;19912;-88
2021/05/07 06:20:57;;;;;;;;;;;6.20;95.90;;;;;;5054445;28;19908;-87
2021/05/07 06:23:23;;;;;;;;;;;6.10;95.10;;;;;;5052472;28;19905;-87
2021/05/07 06:25:49;;;;;;;;;;;6.10;95.60;;;;;;5052610;28;19999;-87
2021/05/07 06:28:15;;;;;;;;;;;6.10;95.50;;;;;;5054995;28;19913;-87
2021/05/07 06:30:40;;;;;;;;;;;6.10;95.20;;;;;;5053362;28;20266;-87
2021/05/07 06:33:05;;;;;;;;;;;6.00;95.40;;;;;;5053427;28;20000;-87
2021/05/07 06:35:31;;;;;;;;;;;6.10;95.70;;;;;;5054621;28;20281;-88
2021/05/07 06:37:59;;;;;;;;;;;6.00;95.50;;;;;;5052584;28;20091;-86
2021/05/07 06:40:24;;;;;;;;;;;5.90;96.10;;;;;;5052060;28;20277;-87
2021/05/07 06:42:50;;;;;;;;;;;5.90;96.30;;;;;;5052389;28;19904;-87
2021/05/07 06:45:15;;;;;;;;;;;5.90;96.20;;;;;;5052045;28;20433;-87
2021/05/07 06:47:41;;;;;;;;;;;5.80;96.30;;;;;;5052253;28;19971;-87
2021/05/07 06:50:07;;;;;;;;;;;5.50;97.40;;;;;;5052398;28;19905;-86
2021/05/07 06:52:33;;;;;;;;;;;5.60;96.70;;;;;;5053934;28;19912;-87
2021/05/07 06:54:59;;;;;;;;;;;5.70;96.80;;;;;;5052595;28;19905;-87
2021/05/07 06:57:24;;;;;;;;;;;5.70;97.10;;;;;;5053737;28;19905;-87
2021/05/07 06:59:50;;;;;;;;;;;5.70;96.80;;;;;;5051526;28;20242;-87
2021/05/07 07:02:17;;;;;;;;;;;5.70;97.40;;;;;;5052139;28;19912;-87
2021/05/07 07:04:42;;;;;;;;;;;5.80;97.30;;;;;;5051741;28;19905;-87
2021/05/07 07:07:08;;;;;;;;;;;5.90;96.60;;;;;;5051791;28;19915;-87
2021/05/07 07:09:34;;;;;;;;;;;5.90;96.10;;;;;;5053555;28;19908;-87
2021/05/07 07:11:59;;;;;;;;;;;5.90;96.60;;;;;;5053937;28;20285;-87
2021/05/07 07:14:38;;;;;;;;;;;6.00;96.20;;;;;;5052740;28;19909;-87
2021/05/07 07:17:04;;;;;;;;;;;5.90;96.80;;;;;;5053914;28;19905;-86
2021/05/07 07:19:30;;;;;;;;;;;6.00;97.40;;;;;;5051568;28;19905;-87
2021/05/07 07:21:55;;;;;;;;;;;5.90;96.90;;;;;;5052284;28;19991;-87
2021/05/07 07:24:21;;;;;;;;;;;6.00;97.10;;;;;;5053677;28;20285;-87
2021/05/07 07:26:46;;;;;;;;;;;6.10;97.00;;;;;;5052447;28;19908;-87
2021/05/07 07:29:12;;;;;;;;;;;6.10;96.70;;;;;;5052998;28;19924;-87
2021/05/07 07:31:37;;;;;;;;;;;6.10;96.80;;;;;;5053040;28;20323;-86
2021/05/07 07:34:03;;;;;;;;;;;6.30;96.80;;;;;;5052850;28;19905;-86
2021/05/07 07:36:29;;;;;;;;;;;6.30;96.50;;;;;;5052708;28;20373;-86
2021/05/07 07:38:54;;;;;;;;;;;6.20;96.10;;;;;;5050693;28;19905;-86
2021/05/07 07:41:22;;;;;;;;;;;6.30;97.10;;;;;;5052497;28;19905;-86
2021/05/07 07:43:47;;;;;;;;;;;6.30;96.30;;;;;;5051232;28;20308;-87
2021/05/07 07:46:13;;;;;;;;;;;6.30;95.30;;;;;;5051138;28;19954;-87
2021/05/07 07:48:38;;;;;;;;;;;6.30;96.00;;;;;;5051317;28;20281;-87
2021/05/07 07:51:04;;;;;;;;;;;6.40;96.20;;;;;;5052049;28;19954;-86
2021/05/07 07:53:30;;;;;;;;;;;6.40;96.50;;;;;;5051145;28;20262;-87
2021/05/07 07:55:55;;;;;;;;;;;6.30;95.20;;;;;;5051097;28;19905;-86
2021/05/07 07:58:21;;;;;;;;;;;6.30;94.70;;;;;;5051228;28;20251;-87
2021/05/07 08:00:47;;;;;;;;;;;6.40;95.30;;;;;;5050470;28;19916;-87
2021/05/07 08:03:12;;;;;;;;;;;6.40;95.40;;;;;;5052463;28;19905;-86
2021/05/07 08:05:38;;;;;;;;;;;6.50;95.00;;;;;;5050830;28;19947;-86
2021/05/07 08:08:04;;;;;;;;;;;6.60;95.20;;;;;;5050917;28;19912;-87
2021/05/07 08:10:29;;;;;;;;;;;6.60;95.60;;;;;;5050421;28;19954;-86
2021/05/07 08:12:55;;;;;;;;;;;6.70;95.40;;;;;;5051000;28;19905;-86
2021/05/07 08:15:21;;;;;;;;;;;6.60;95.30;;;;;;5050861;28;19912;-86
2021/05/07 08:17:49;;;;;;;;;;;6.80;96.10;;;;;;5051810;28;20361;-86
2021/05/07 08:20:16;;;;;;;;;;;6.60;94.70;;;;;;5050226;28;19904;-86
2021/05/07 08:22:42;;;;;;;;;;;6.60;95.40;;;;;;5051954;28;20409;-87
2021/05/07 08:25:10;;;;;;;;;;;6.60;95.00;;;;;;5050781;28;20035;-87
2021/05/07 08:27:36;;;;;;;;;;;6.60;95.40;;;;;;5051750;28;19909;-87
2021/05/07 08:30:02;;;;;;;;;;;6.70;95.00;;;;;;5050082;28;19909;-87
2021/05/07 08:32:27;;;;;;;;;;;6.80;95.80;;;;;;5053451;28;19912;-87
2021/05/07 08:34:53;;;;;;;;;;;6.70;95.30;;;;;;5054704;28;19904;-86
2021/05/07 08:37:18;;;;;;;;;;;6.70;96.10;;;;;;5055728;28;19911;-86
2021/05/07 08:39:44;;;;;;;;;;;6.70;95.50;;;;;;5055292;28;19947;-86
2021/05/07 08:42:10;;;;;;;;;;;6.70;95.90;;;;;;5054455;28;20190;-86
2021/05/07 08:44:36;;;;;;;;;;;6.60;94.80;;;;;;5055601;28;19924;-86
2021/05/07 08:47:02;;;;;;;;;;;6.50;95.40;;;;;;5055574;28;19995;-86
2021/05/07 08:49:28;;;;;;;;;;;6.60;95.20;;;;;;5053759;28;19987;-86
2021/05/07 08:51:53;;;;;;;;;;;6.60;95.90;;;;;;5056721;28;19991;-87
2021/05/07 08:54:19;;;;;;;;;;;6.70;96.00;;;;;;5060117;28;19905;-86
2021/05/07 08:56:45;;;;;;;;;;;6.80;95.90;;;;;;5058499;28;20281;-86
2021/05/07 08:59:11;;;;;;;;;;;6.80;96.00;;;;;;5058894;28;20352;-87
2021/05/07 09:01:39;;;;;;;;;;;6.90;94.40;;;;;;5054598;28;19944;-86
2021/05/07 09:04:09;;;;;;;;;;;6.90;94.70;;;;;;5055459;28;19904;-86
2021/05/07 09:06:38;;;;;;;;;;;6.80;95.30;;;;;;5055325;28;19916;-87
2021/05/07 09:09:14;;;;;;;;;;;6.90;95.80;;;;;;5054736;28;19916;-86
2021/05/07 09:11:41;;;;;;;;;;;7.00;95.50;;;;;;5053662;28;19955;-86
2021/05/07 09:14:07;;;;;;;;;;;7.00;94.90;;;;;;5055154;28;20258;-86
2021/05/07 09:16:32;;;;;;;;;;;7.00;94.80;;;;;;5053874;28;19911;-86
2021/05/07 09:18:58;;;;;;;;;;;7.10;94.70;;;;;;5053208;28;19954;-87
2021/05/07 09:21:23;;;;;;;;;;;7.00;92.80;;;;;;5055001;28;19927;-86
2021/05/07 09:23:51;;;;;;;;;;;7.00;93.10;;;;;;5055031;28;19904;-87
2021/05/07 09:26:17;;;;;;;;;;;7.10;93.20;;;;;;5055316;28;19915;-86
2021/05/07 09:28:56;;;;;;;;;;;7.20;93.80;;;;;;5053640;28;20289;-86
2021/05/07 09:31:21;;;;;;;;;;;7.20;93.30;;;;;;5053499;28;19905;-86
2021/05/07 09:33:48;;;;;;;;;;;7.20;92.60;;;;;;5053745;28;20000;-86
2021/05/07 09:36:24;;;;;;;;;;;7.20;93.60;;;;;;5053359;28;19962;-86
2021/05/07 09:38:50;;;;;;;;;;;7.40;93.50;;;;;;5054554;28;20349;-86
2021/05/07 09:41:16;;;;;;;;;;;7.50;93.10;;;;;;5054344;28;19957;-86
2021/05/07 09:43:42;;;;;;;;;;;7.40;92.40;;;;;;5053474;28;19909;-86
2021/05/07 09:46:07;;;;;;;;;;;7.40;92.20;;;;;;5055037;28;20317;-87
2021/05/07 09:48:33;;;;;;;;;;;7.50;92.30;;;;;;5054690;28;19905;-87
2021/05/07 09:51:02;;;;;;;;;;;7.50;91.70;;;;;;5053111;28;19905;-87
2021/05/07 09:53:36;;;;;;;;;;;7.50;91.30;;;;;;5053435;28;19908;-86
2021/05/07 09:56:11;;;;;;;;;;;7.50;91.80;;;;;;5055434;28;19908;-86
2021/05/07 09:58:37;;;;;;;;;;;7.70;92.20;;;;;;5053262;28;19915;-87
2021/05/07 10:01:03;;;;;;;;;;;7.80;92.00;;;;;;5054529;28;19987;-86
2021/05/07 10:03:28;;;;;;;;;;;7.80;90.50;;;;;;5053567;28;20373;-86
2021/05/07 10:05:54;;;;;;;;;;;7.80;90.50;;;;;;5054685;28;20361;-87
2021/05/07 10:08:19;;;;;;;;;;;7.90;88.90;;;;;;5054367;28;19908;-87
2021/05/07 10:10:47;;;;;;;;;;;8.00;88.80;;;;;;5053455;28;19909;-87
2021/05/07 10:13:17;;;;;;;;;;;8.00;88.70;;;;;;5054747;28;19905;-88
2021/05/07 10:15:43;;;;;;;;;;;8.00;88.20;;;;;;5056136;28;19913;-87
2021/05/07 10:18:09;;;;;;;;;;;8.20;89.30;;;;;;5055723;28;19905;-88
2021/05/07 10:20:39;;;;;;;;;;;8.20;89.40;;;;;;5055713;28;19912;-87
2021/05/07 10:23:20;;;;;;;;;;;8.20;87.30;;;;;;5056808;28;19997;-87
2021/05/07 10:25:53;;;;;;;;;;;8.30;87.80;;;;;;5055426;28;20362;-86
2021/05/07 10:28:21;;;;;;;;;;;8.30;84.90;;;;;;5056643;28;19931;-86
2021/05/07 10:30:47;;;;;;;;;;;8.20;85.60;;;;;;5053824;28;19920;-86
2021/05/07 10:33:19;;;;;;;;;;;8.20;85.60;;;;;;5055699;28;19999;-87
2021/05/07 10:35:54;;;;;;;;;;;8.20;86.20;;;;;;5054668;28;19905;-86
2021/05/07 10:38:20;;;;;;;;;;;8.30;87.60;;;;;;5054638;28;20365;-87
2021/05/07 10:40:50;;;;;;;;;;;8.30;86.70;;;;;;5056006;28;19912;-86
2021/05/07 10:43:16;;;;;;;;;;;8.30;86.00;;;;;;5054806;28;20002;-87
2021/05/07 10:45:49;;;;;;;;;;;8.20;86.20;;;;;;5056265;28;20421;-87
2021/05/07 10:48:25;;;;;;;;;;;8.30;86.50;;;;;;5055774;28;19996;-86
2021/05/07 10:51:10;;;;;;;;;;;8.30;85.00;;;;;;5054260;28;19904;-87
2021/05/07 10:53:37;;;;;;;;;;;8.40;84.90;;;;;;5046942;28;19999;-87
2021/05/07 10:56:14;;;;;;;;;;;8.50;84.60;;;;;;5054031;28;19904;-87
2021/05/07 10:58:40;;;;;;;;;;;8.50;82.40;;;;;;5055063;28;19905;-87
2021/05/07 11:01:17;;;;;;;;;;;8.50;82.40;;;;;;5054404;28;19915;-87
2021/05/07 11:03:43;;;;;;;;;;;8.50;82.40;;;;;;5054775;28;20262;-87
2021/05/07 11:06:09;;;;;;;;;;;8.40;81.70;;;;;;5055363;28;19995;-87
2021/05/07 11:08:34;;;;;;;;;;;8.50;81.40;;;;;;5057316;28;19905;-87
2021/05/07 11:11:03;;;;;;;;;;;8.60;78.20;;;;;;5056388;28;19905;-87
2021/05/07 11:13:46;;;;;;;;;;;8.60;77.60;;;;;;5056231;28;20088;-86
2021/05/07 11:16:12;;;;;;;;;;;8.80;77.60;;;;;;5055439;28;19904;-87
2021/05/07 11:18:45;;;;;;;;;;;9.00;77.30;;;;;;5055277;28;19995;-87
2021/05/07 11:21:11;;;;;;;;;;;9.00;76.80;;;;;;5054828;28;20318;-88
2021/05/07 11:23:37;;;;;;;;;;;9.10;76.30;;;;;;5055748;28;19911;-87
2021/05/07 11:26:06;;;;;;;;;;;9.20;78.30;;;;;;5055320;28;20003;-87
2021/05/07 11:28:42;;;;;;;;;;;9.30;77.20;;;;;;5055806;28;19912;-87
2021/05/07 11:31:08;;;;;;;;;;;9.30;77.60;;;;;;5055118;28;19904;-87
2021/05/07 11:33:33;;;;;;;;;;;9.40;75.80;;;;;;5056350;28;19962;-87
2021/05/07 11:36:09;;;;;;;;;;;9.40;76.00;;;;;;5054362;28;19951;-86
2021/05/07 11:38:35;;;;;;;;;;;9.40;73.60;;;;;;5051461;28;19915;-88
2021/05/07 11:41:01;;;;;;;;;;;9.40;73.90;;;;;;5052454;28;19954;-87
2021/05/07 11:43:28;;;;;;;;;;;9.40;76.20;;;;;;5053021;28;19904;-88
2021/05/07 11:46:04;;;;;;;;;;;9.40;77.00;;;;;;5053456;28;20329;-87
2021/05/07 11:48:29;;;;;;;;;;;9.40;77.60;;;;;;5054589;28;20357;-87
2021/05/07 11:50:55;;;;;;;;;;;9.60;74.10;;;;;;5054068;28;19911;-86
2021/05/07 11:53:23;;;;;;;;;;;9.70;71.40;;;;;;5054307;28;19905;-87
2021/05/07 11:55:49;;;;;;;;;;;9.70;68.10;;;;;;5054431;28;20007;-86
2021/05/07 11:58:15;;;;;;;;;;;9.70;69.30;;;;;;5053086;28;19963;-86
2021/05/07 12:00:42;;;;;;;;;;;9.70;70.70;;;;;;5052253;28;19905;-87
2021/05/07 12:03:09;;;;;;;;;;;9.80;73.00;;;;;;5069702;28;19905;-86
2021/05/07 12:05:35;;;;;;;;;;;9.70;70.50;;;;;;5054124;28;19909;-87
2021/05/07 12:08:01;;;;;;;;;;;9.60;70.30;;;;;;5058353;28;20278;-87
2021/05/07 12:10:28;;;;;;;;;;;9.80;70.00;;;;;;5058646;28;19905;-87
2021/05/07 12:12:54;;;;;;;;;;;9.80;71.20;;;;;;5057053;28;20346;-87
2021/05/07 12:15:22;;;;;;;;;;;9.90;71.00;;;;;;5057069;28;19936;-87
2021/05/07 12:17:48;;;;;;;;;;;10.00;70.20;;;;;;5056740;28;19995;-86
2021/05/07 12:20:15;;;;;;;;;;;10.00;70.80;;;;;;5056743;28;19908;-87
2021/05/07 12:22:41;;;;;;;;;;;9.90;70.90;;;;;;5055861;28;19905;-86
2021/05/07 12:25:08;;;;;;;;;;;10.10;70.80;;;;;;5056831;28;20258;-86
2021/05/07 12:27:33;;;;;;;;;;;10.10;72.80;;;;;;5057560;28;19912;-87
2021/05/07 12:29:59;;;;;;;;;;;10.10;73.20;;;;;;5055799;28;19911;-87
2021/05/07 12:32:24;;;;;;;;;;;10.00;73.20;;;;;;5056588;28;20280;-87
2021/05/07 12:34:54;;;;;;;;;;;10.00;73.40;;;;;;5057114;28;19905;-87
2021/05/07 12:37:19;;;;;;;;;;;10.10;73.10;;;;;;5058187;28;19904;-87
2021/05/07 12:39:46;;;;;;;;;;;10.10;72.80;;;;;;5056714;28;20011;-86
2021/05/07 12:42:12;;;;;;;;;;;10.10;72.90;;;;;;5056838;28;19909;-87
2021/05/07 12:44:38;;;;;;;;;;;10.10;72.80;;;;;;5058356;28;19935;-87
2021/05/07 12:47:04;;;;;;;;;;;10.20;73.60;;;;;;5059040;28;19909;-87
2021/05/07 12:49:30;;;;;;;;;;;10.20;72.30;;;;;;5060643;28;20327;-88
2021/05/07 12:51:59;;;;;;;;;;;10.20;72.10;;;;;;5061953;28;20025;-87
2021/05/07 12:54:24;;;;;;;;;;;10.20;72.20;;;;;;5060668;28;19912;-87
2021/05/07 12:56:52;;;;;;;;;;;10.10;71.40;;;;;;5062311;28;19988;-87
2021/05/07 12:59:17;;;;;;;;;;;10.10;70.80;;;;;;5058916;28;19909;-87
2021/05/07 13:01:43;;;;;;;;;;;10.10;71.60;;;;;;5059262;28;19904;-87
2021/05/07 13:04:09;;;;;;;;;;;10.00;71.20;;;;;;5059772;28;19954;-88
2021/05/07 13:06:34;;;;;;;;;;;10.00;72.90;;;;;;5061344;28;19912;-87
2021/05/07 13:09:00;;;;;;;;;;;10.00;75.00;;;;;;5058516;28;19904;-87
2021/05/07 13:11:26;;;;;;;;;;;10.00;75.40;;;;;;5059451;28;20364;-87
2021/05/07 13:13:54;;;;;;;;;;;9.90;75.90;;;;;;5058374;28;19946;-87
2021/05/07 13:16:28;;;;;;;;;;;9.90;76.70;;;;;;5058652;28;20027;-87
2021/05/07 13:18:54;;;;;;;;;;;9.80;78.30;;;;;;5056850;28;19915;-87
2021/05/07 13:21:19;;;;;;;;;;;9.70;78.30;;;;;;5057092;28;19904;-87
2021/05/07 13:23:45;;;;;;;;;;;9.70;78.90;;;;;;5056561;28;19904;-87
2021/05/07 13:26:10;;;;;;;;;;;9.60;80.00;;;;;;5057034;28;19905;-87
2021/05/07 13:28:36;;;;;;;;;;;9.60;81.00;;;;;;5056480;28;20016;-87
2021/05/07 13:31:02;;;;;;;;;;;9.50;80.10;;;;;;5057204;28;19904;-87
2021/05/07 13:33:29;;;;;;;;;;;9.50;79.50;;;;;;5056314;28;19919;-87
2021/05/07 13:35:56;;;;;;;;;;;9.60;78.70;;;;;;5055852;28;19905;-86
2021/05/07 13:38:22;;;;;;;;;;;9.70;78.70;;;;;;5056341;28;19908;-87
2021/05/07 13:40:50;;;;;;;;;;;9.80;76.10;;;;;;5057087;28;19905;-87
2021/05/07 13:43:18;;;;;;;;;;;9.90;76.80;;;;;;5055314;28;20281;-87
2021/05/07 13:45:44;;;;;;;;;;;10.10;77.70;;;;;;5055524;28;19909;-87
2021/05/07 13:48:09;;;;;;;;;;;10.30;76.90;;;;;;5055258;28;20377;-87
2021/05/07 13:50:35;;;;;;;;;;;10.30;75.60;;;;;;5054685;28;20289;-87
2021/05/07 13:53:01;;;;;;;;;;;10.40;75.60;;;;;;5055793;28;20376;-87
2021/05/07 13:55:26;;;;;;;;;;;10.60;75.60;;;;;;5055426;28;19912;-87
2021/05/07 13:57:52;;;;;;;;;;;10.70;75.10;;;;;;5054880;28;19905;-87
2021/05/07 14:00:21;;;;;;;;;;;10.90;74.20;;;;;;5055988;28;19905;-87
2021/05/07 14:02:47;;;;;;;;;;;11.00;72.70;;;;;;5054720;28;19905;-86
2021/05/07 14:05:13;;;;;;;;;;;11.00;73.50;;;;;;5055007;28;19912;-87
2021/05/07 14:07:38;;;;;;;;;;;11.20;73.40;;;;;;5054591;28;19934;-86
2021/05/07 14:10:04;;;;;;;;;;;11.20;73.70;;;;;;5054053;28;20258;-87
2021/05/07 14:12:30;;;;;;;;;;;11.30;72.60;;;;;;5054790;28;20422;-87
2021/05/07 14:14:56;;;;;;;;;;;11.40;70.10;;;;;;5054969;28;19908;-87
2021/05/07 14:17:21;;;;;;;;;;;11.60;68.60;;;;;;5054106;28;20011;-86
2021/05/07 14:19:52;;;;;;;;;;;11.90;68.40;;;;;;5054182;28;19912;-86
2021/05/07 14:22:18;;;;;;;;;;;11.80;68.70;;;;;;5056753;28;19905;-87
2021/05/07 14:24:44;;;;;;;;;;;11.80;70.20;;;;;;5055299;28;19919;-87
2021/05/07 14:27:12;;;;;;;;;;;12.10;67.80;;;;;;5053930;28;19913;-86
2021/05/07 14:29:40;;;;;;;;;;;12.20;65.40;;;;;;5054099;28;19968;-86
2021/05/07 14:32:12;;;;;;;;;;;12.30;65.10;;;;;;5053298;28;19951;-87
2021/05/07 14:34:38;;;;;;;;;;;12.50;64.80;;;;;;5052852;28;19905;-86
2021/05/07 14:37:04;;;;;;;;;;;12.50;62.30;;;;;;5053519;28;19920;-86